createdAt,value
2017-03-06T00:00:34.284Z,0
2017-03-06T00:01:34.305Z,0
2017-03-06T00:02:34.304Z,0
2017-03-06T00:03:34.337Z,0
2017-03-06T00:04:34.343Z,0
2017-03-06T00:05:34.358Z,0
2017-03-06T00:06:34.408Z,0
2017-03-06T00:07:34.421Z,0
2017-03-06T00:08:34.405Z,0
2017-03-06T00:09:34.426Z,0
2017-03-06T00:10:34.435Z,0
2017-03-06T00:11:34.479Z,0
2017-03-06T00:12:34.462Z,0
2017-03-06T00:13:34.090Z,0
2017-03-06T00:14:34.517Z,0
2017-03-06T00:15:34.552Z,0
2017-03-06T00:16:34.540Z,0
2017-03-06T00:17:34.756Z,0
2017-03-06T00:18:34.572Z,0
2017-03-06T00:19:34.591Z,0
2017-03-06T00:20:34.611Z,0
2017-03-06T00:21:34.621Z,0
2017-03-06T00:22:34.652Z,0
2017-03-06T00:23:34.677Z,0
2017-03-06T00:24:34.346Z,0
2017-03-06T00:25:34.680Z,0
2017-03-06T00:26:34.692Z,0
2017-03-06T00:27:34.706Z,0
2017-03-06T00:28:34.723Z,0
2017-03-06T00:29:34.768Z,0
2017-03-06T00:30:34.754Z,0
2017-03-06T00:31:34.771Z,0
2017-03-06T00:32:34.799Z,0
2017-03-06T00:33:34.813Z,0
2017-03-06T00:34:34.843Z,0
2017-03-06T00:35:34.840Z,0
2017-03-06T00:36:34.873Z,0
2017-03-06T00:37:34.860Z,0
2017-03-06T00:38:34.494Z,0
2017-03-06T00:39:34.900Z,0
2017-03-06T00:40:34.901Z,0
2017-03-06T00:41:34.935Z,0
2017-03-06T00:42:34.947Z,0
2017-03-06T00:43:34.971Z,0
2017-03-06T00:44:35.057Z,0
2017-03-06T00:45:34.686Z,0
2017-03-06T00:46:34.681Z,0
2017-03-06T00:47:35.016Z,0
2017-03-06T00:48:34.629Z,0
2017-03-06T00:49:34.885Z,0
2017-03-06T00:50:35.096Z,0
2017-03-06T00:51:35.077Z,0
2017-03-06T00:52:35.096Z,0
2017-03-06T00:53:35.104Z,0
2017-03-06T00:54:35.148Z,0
2017-03-06T00:55:35.144Z,0
2017-03-06T00:56:35.161Z,0
2017-03-06T00:57:35.176Z,0
2017-03-06T00:58:35.196Z,0
2017-03-06T00:59:34.821Z,0
2017-03-06T01:00:35.246Z,0
2017-03-06T01:01:34.838Z,0
2017-03-06T01:02:35.263Z,0
2017-03-06T01:03:34.887Z,0
2017-03-06T01:04:35.297Z,0
2017-03-06T01:05:34.918Z,0
2017-03-06T01:06:34.937Z,0
2017-03-06T01:07:34.941Z,0
2017-03-06T01:08:35.345Z,0
2017-03-06T01:09:35.365Z,0
2017-03-06T01:10:35.379Z,0
2017-03-06T01:11:35.200Z,0
2017-03-06T01:12:35.029Z,0
2017-03-06T01:13:35.431Z,0
2017-03-06T01:14:35.043Z,0
2017-03-06T01:15:35.460Z,0
2017-03-06T01:16:35.080Z,0
2017-03-06T01:17:35.497Z,0
2017-03-06T01:18:35.533Z,0
2017-03-06T01:19:35.517Z,0
2017-03-06T01:20:35.152Z,0
2017-03-06T01:21:35.169Z,0
2017-03-06T01:22:35.581Z,0
2017-03-06T01:23:35.190Z,0
2017-03-06T01:24:35.619Z,0
2017-03-06T01:25:35.325Z,0
2017-03-06T01:26:35.772Z,0
2017-03-06T01:27:35.770Z,0
2017-03-06T01:28:35.770Z,0
2017-03-06T01:29:35.519Z,0
2017-03-06T01:30:35.761Z,0
2017-03-06T01:31:35.820Z,0
2017-03-06T01:32:35.430Z,0
2017-03-06T01:33:35.461Z,0
2017-03-06T01:34:35.921Z,0
2017-03-06T01:35:35.864Z,0
2017-03-06T01:36:35.867Z,0
2017-03-06T01:37:35.471Z,0
2017-03-06T01:38:35.515Z,0
2017-03-06T01:39:36.027Z,0
2017-03-06T01:40:35.581Z,0
2017-03-06T01:41:35.567Z,0
2017-03-06T01:42:35.968Z,0
2017-03-06T01:43:35.589Z,0
2017-03-06T01:44:36.025Z,0
2017-03-06T01:45:35.947Z,0
2017-03-06T01:46:35.963Z,0
2017-03-06T01:47:35.561Z,0
2017-03-06T01:48:35.661Z,0
2017-03-06T01:49:35.990Z,0
2017-03-06T01:50:36.007Z,0
2017-03-06T01:51:36.028Z,0
2017-03-06T01:52:36.028Z,0
2017-03-06T01:53:36.055Z,0
2017-03-06T01:54:36.070Z,0
2017-03-06T01:55:36.094Z,0
2017-03-06T01:56:36.093Z,0
2017-03-06T01:57:36.116Z,0
2017-03-06T01:58:36.121Z,0
2017-03-06T01:59:36.143Z,0
2017-03-06T02:00:35.874Z,0
2017-03-06T02:01:36.186Z,0
2017-03-06T02:02:36.206Z,0
2017-03-06T02:03:36.211Z,0
2017-03-06T02:04:36.219Z,0
2017-03-06T02:05:35.851Z,0
2017-03-06T02:06:35.852Z,0
2017-03-06T02:07:36.269Z,0
2017-03-06T02:08:36.300Z,0
2017-03-06T02:09:36.299Z,0
2017-03-06T02:10:35.918Z,0
2017-03-06T02:11:36.324Z,0
2017-03-06T02:12:35.956Z,0
2017-03-06T02:13:35.957Z,0
2017-03-06T02:14:36.386Z,0
2017-03-06T02:15:36.004Z,0
2017-03-06T02:16:36.021Z,0
2017-03-06T02:17:36.423Z,0
2017-03-06T02:18:36.036Z,0
2017-03-06T02:19:36.457Z,0
2017-03-06T02:20:36.469Z,0
2017-03-06T02:21:36.587Z,0
2017-03-06T02:22:35.859Z,0
2017-03-06T02:23:36.273Z,0
2017-03-06T02:24:36.808Z,0
2017-03-06T02:25:36.678Z,0
2017-03-06T02:26:36.688Z,0
2017-03-06T02:27:36.681Z,0
2017-03-06T02:28:36.292Z,0
2017-03-06T02:29:36.888Z,0
2017-03-06T02:30:36.697Z,0
2017-03-06T02:31:36.847Z,0
2017-03-06T02:32:36.862Z,0
2017-03-06T02:33:36.862Z,0
2017-03-06T02:34:36.844Z,0
2017-03-06T02:35:36.779Z,0
2017-03-06T02:36:36.785Z,0
2017-03-06T02:37:36.832Z,0
2017-03-06T02:38:36.445Z,0
2017-03-06T02:39:51.378Z,0
2017-03-06T02:40:36.489Z,0
2017-03-06T02:41:36.475Z,0
2017-03-06T02:42:36.901Z,0
2017-03-06T02:43:36.885Z,0
2017-03-06T02:44:36.971Z,0
2017-03-06T02:45:36.904Z,0
2017-03-06T02:46:36.934Z,0
2017-03-06T02:47:36.493Z,0
2017-03-06T02:48:36.920Z,0
2017-03-06T02:49:36.922Z,0
2017-03-06T02:50:36.924Z,0
2017-03-06T02:51:37.154Z,0
2017-03-06T02:52:36.956Z,0
2017-03-06T02:53:37.086Z,0
2017-03-06T02:54:37.094Z,0
2017-03-06T02:55:37.111Z,0
2017-03-06T02:56:38.075Z,0
2017-03-06T02:57:37.033Z,0
2017-03-06T02:58:37.053Z,0
2017-03-06T02:59:37.132Z,0
2017-03-06T03:00:37.133Z,0
2017-03-06T03:01:37.178Z,0
2017-03-06T03:02:37.188Z,0
2017-03-06T03:03:37.198Z,0
2017-03-06T03:04:36.743Z,0
2017-03-06T03:05:37.203Z,0
2017-03-06T03:06:37.290Z,0
2017-03-06T03:07:37.221Z,0
2017-03-06T03:08:37.409Z,0
2017-03-06T03:09:37.226Z,0
2017-03-06T03:10:36.459Z,0
2017-03-06T03:11:37.262Z,0
2017-03-06T03:12:36.961Z,0
2017-03-06T03:13:36.964Z,0
2017-03-06T03:14:37.309Z,0
2017-03-06T03:15:37.309Z,0
2017-03-06T03:16:37.325Z,0
2017-03-06T03:17:37.343Z,0
2017-03-06T03:18:37.373Z,0
2017-03-06T03:19:37.386Z,0
2017-03-06T03:20:37.408Z,0
2017-03-06T03:21:37.393Z,0
2017-03-06T03:22:37.417Z,0
2017-03-06T03:23:37.444Z,0
2017-03-06T03:24:37.443Z,0
2017-03-06T03:25:37.461Z,0
2017-03-06T03:26:37.497Z,0
2017-03-06T03:27:38.345Z,0
2017-03-06T03:28:37.720Z,0
2017-03-06T03:29:37.541Z,0
2017-03-06T03:30:37.533Z,0
2017-03-06T03:31:37.552Z,0
2017-03-06T03:32:37.192Z,0
2017-03-06T03:33:37.585Z,0
2017-03-06T03:34:37.596Z,0
2017-03-06T03:35:37.227Z,0
2017-03-06T03:36:37.245Z,0
2017-03-06T03:37:37.639Z,0
2017-03-06T03:38:37.684Z,0
2017-03-06T03:39:37.687Z,0
2017-03-06T03:40:37.805Z,0
2017-03-06T03:41:37.838Z,0
2017-03-06T03:42:37.854Z,0
2017-03-06T03:43:37.739Z,0
2017-03-06T03:44:37.872Z,0
2017-03-06T03:45:37.872Z,0
2017-03-06T03:46:37.903Z,0
2017-03-06T03:47:37.911Z,0
2017-03-06T03:48:37.822Z,0
2017-03-06T03:49:37.830Z,0
2017-03-06T03:50:37.964Z,0
2017-03-06T03:51:37.972Z,0
2017-03-06T03:52:37.983Z,0
2017-03-06T03:53:37.991Z,0
2017-03-06T03:54:38.014Z,0
2017-03-06T03:55:38.023Z,0
2017-03-06T03:56:38.031Z,0
2017-03-06T03:57:38.040Z,0
2017-03-06T03:58:38.049Z,0
2017-03-06T03:59:38.047Z,0
2017-03-06T04:00:38.058Z,0
2017-03-06T04:01:38.082Z,0
2017-03-06T04:02:37.642Z,0
2017-03-06T04:03:38.111Z,0
2017-03-06T04:04:38.122Z,0
2017-03-06T04:05:38.129Z,0
2017-03-06T04:06:37.814Z,0
2017-03-06T04:07:38.149Z,0
2017-03-06T04:08:37.832Z,0
2017-03-06T04:09:37.831Z,0
2017-03-06T04:10:38.176Z,0
2017-03-06T04:11:38.182Z,0
2017-03-06T04:12:37.883Z,0
2017-03-06T04:13:37.889Z,0
2017-03-06T04:14:38.206Z,0
2017-03-06T04:15:38.229Z,0
2017-03-06T04:16:37.942Z,0
2017-03-06T04:17:38.256Z,0
2017-03-06T04:18:38.280Z,0
2017-03-06T04:19:38.293Z,0
2017-03-06T04:20:38.321Z,0
2017-03-06T04:21:38.333Z,0
2017-03-06T04:22:38.381Z,0
2017-03-06T04:23:38.342Z,0
2017-03-06T04:24:38.369Z,0
2017-03-06T04:25:38.387Z,0
2017-03-06T04:26:38.389Z,0
2017-03-06T04:27:38.411Z,0
2017-03-06T04:28:38.080Z,0
2017-03-06T04:29:38.450Z,0
2017-03-06T04:30:38.486Z,0
2017-03-06T04:31:38.148Z,0
2017-03-06T04:32:38.158Z,0
2017-03-06T04:33:38.504Z,0
2017-03-06T04:34:38.125Z,0
2017-03-06T04:35:38.557Z,0
2017-03-06T04:36:38.548Z,0
2017-03-06T04:37:38.161Z,0
2017-03-06T04:38:38.581Z,0
2017-03-06T04:39:38.607Z,0
2017-03-06T04:40:38.611Z,0
2017-03-06T04:41:38.632Z,0
2017-03-06T04:42:38.650Z,0
2017-03-06T04:43:38.648Z,0
2017-03-06T04:44:38.681Z,0
2017-03-06T04:45:38.696Z,0
2017-03-06T04:46:38.715Z,0
2017-03-06T04:47:38.711Z,0
2017-03-06T04:48:38.738Z,0
2017-03-06T04:49:38.748Z,0
2017-03-06T04:50:38.771Z,0
2017-03-06T04:51:38.823Z,0
2017-03-06T04:52:38.802Z,0
2017-03-06T04:53:38.811Z,0
2017-03-06T04:54:38.815Z,0
2017-03-06T04:55:38.836Z,0
2017-03-06T04:56:38.857Z,0
2017-03-06T04:57:38.878Z,0
2017-03-06T04:58:38.895Z,0
2017-03-06T04:59:38.911Z,0
2017-03-06T05:00:38.950Z,0
2017-03-06T05:01:38.936Z,0
2017-03-06T05:02:38.959Z,0
2017-03-06T05:03:38.970Z,0
2017-03-06T05:04:38.981Z,0
2017-03-06T05:05:38.613Z,0
2017-03-06T05:06:39.003Z,0
2017-03-06T05:07:39.035Z,0
2017-03-06T05:08:39.031Z,0
2017-03-06T05:09:39.062Z,0
2017-03-06T05:10:39.057Z,0
2017-03-06T05:11:39.090Z,0
2017-03-06T05:12:39.119Z,0
2017-03-06T05:13:39.137Z,0
2017-03-06T05:14:39.146Z,0
2017-03-06T05:15:39.149Z,0
2017-03-06T05:16:38.756Z,0
2017-03-06T05:17:39.189Z,0
2017-03-06T05:18:39.202Z,0
2017-03-06T05:19:39.215Z,0
2017-03-06T05:20:39.220Z,0
2017-03-06T05:21:39.232Z,0
2017-03-06T05:22:45.706Z,0
2017-03-06T05:23:39.429Z,0
2017-03-06T05:24:39.171Z,0
2017-03-06T05:25:39.417Z,4
2017-03-06T05:26:38.903Z,4
2017-03-06T05:27:39.415Z,0
2017-03-06T05:28:39.349Z,0
2017-03-06T05:29:39.356Z,4
2017-03-06T05:30:39.401Z,4
2017-03-06T05:31:39.403Z,4
2017-03-06T05:32:39.419Z,4
2017-03-06T05:33:39.414Z,4
2017-03-06T05:34:39.434Z,4
2017-03-06T05:35:39.441Z,4
2017-03-06T05:36:39.462Z,4
2017-03-06T05:37:39.483Z,8
2017-03-06T05:38:39.492Z,8
2017-03-06T05:39:39.516Z,4
2017-03-06T05:40:39.143Z,8
2017-03-06T05:41:39.536Z,8
2017-03-06T05:42:39.555Z,8
2017-03-06T05:43:39.569Z,8
2017-03-06T05:44:39.595Z,8
2017-03-06T05:45:39.600Z,8
2017-03-06T05:46:39.631Z,12
2017-03-06T05:47:39.653Z,12
2017-03-06T05:48:39.669Z,12
2017-03-06T05:49:39.652Z,12
2017-03-06T05:50:39.687Z,16
2017-03-06T05:51:39.731Z,16
2017-03-06T05:52:39.322Z,16
2017-03-06T05:53:39.715Z,20
2017-03-06T05:54:39.352Z,20
2017-03-06T05:55:39.745Z,12
2017-03-06T05:56:39.773Z,20
2017-03-06T05:57:39.791Z,20
2017-03-06T05:58:39.793Z,24
2017-03-06T05:59:39.806Z,24
2017-03-06T06:00:39.821Z,28
2017-03-06T06:01:39.838Z,32
2017-03-06T06:02:39.848Z,32
2017-03-06T06:03:39.868Z,36
2017-03-06T06:04:39.895Z,36
2017-03-06T06:05:39.895Z,40
2017-03-06T06:06:39.911Z,44
2017-03-06T06:07:39.933Z,44
2017-03-06T06:08:39.954Z,52
2017-03-06T06:09:39.954Z,52
2017-03-06T06:10:39.979Z,56
2017-03-06T06:11:39.999Z,48
2017-03-06T06:12:40.017Z,52
2017-03-06T06:13:39.218Z,64
2017-03-06T06:14:39.636Z,72
2017-03-06T06:15:40.045Z,68
2017-03-06T06:16:40.096Z,76
2017-03-06T06:17:40.113Z,72
2017-03-06T06:18:40.105Z,84
2017-03-06T06:19:40.102Z,88
2017-03-06T06:20:40.127Z,104
2017-03-06T06:21:40.150Z,124
2017-03-06T06:22:40.164Z,108
2017-03-06T06:23:40.176Z,148
2017-03-06T06:24:40.206Z,176
2017-03-06T06:25:40.210Z,160
2017-03-06T06:26:40.216Z,168
2017-03-06T06:27:39.840Z,172
2017-03-06T06:28:40.242Z,196
2017-03-06T06:29:40.278Z,188
2017-03-06T06:30:40.287Z,172
2017-03-06T06:31:40.299Z,132
2017-03-06T06:32:40.313Z,132
2017-03-06T06:33:40.342Z,140
2017-03-06T06:34:40.344Z,152
2017-03-06T06:35:40.356Z,160
2017-03-06T06:36:39.992Z,160
2017-03-06T06:37:40.395Z,176
2017-03-06T06:38:40.407Z,188
2017-03-06T06:39:40.414Z,180
2017-03-06T06:40:40.436Z,200
2017-03-06T06:41:40.435Z,236
2017-03-06T06:42:40.481Z,272
2017-03-06T06:43:40.472Z,316
2017-03-06T06:44:40.489Z,304
2017-03-06T06:45:40.503Z,260
2017-03-06T06:46:40.527Z,272
2017-03-06T06:47:40.552Z,252
2017-03-06T06:48:40.567Z,248
2017-03-06T06:49:40.569Z,364
2017-03-06T06:50:40.589Z,284
2017-03-06T06:51:40.590Z,296
2017-03-06T06:52:40.608Z,324
2017-03-06T06:53:40.619Z,416
2017-03-06T06:54:40.804Z,380
2017-03-06T06:55:40.660Z,352
2017-03-06T06:56:40.772Z,360
2017-03-06T06:57:40.783Z,444
2017-03-06T06:58:40.814Z,480
2017-03-06T06:59:40.831Z,496
2017-03-06T07:00:40.726Z,560
2017-03-06T07:01:40.763Z,584
2017-03-06T07:02:40.759Z,580
2017-03-06T07:03:40.774Z,556
2017-03-06T07:04:40.785Z,516
2017-03-06T07:05:40.814Z,520
2017-03-06T07:06:40.824Z,500
2017-03-06T07:07:40.861Z,504
2017-03-06T07:08:40.848Z,516
2017-03-06T07:09:40.865Z,476
2017-03-06T07:10:40.905Z,400
2017-03-06T07:11:40.898Z,332
2017-03-06T07:12:40.933Z,360
2017-03-06T07:13:40.549Z,424
2017-03-06T07:14:40.567Z,416
2017-03-06T07:15:40.595Z,468
2017-03-06T07:16:40.992Z,504
2017-03-06T07:17:41.001Z,512
2017-03-06T07:18:41.021Z,524
2017-03-06T07:19:40.645Z,544
2017-03-06T07:20:41.036Z,536
2017-03-06T07:21:41.098Z,564
2017-03-06T07:22:41.165Z,560
2017-03-06T07:23:40.679Z,544
2017-03-06T07:24:41.207Z,556
2017-03-06T07:25:41.230Z,576
2017-03-06T07:26:41.227Z,568
2017-03-06T07:27:40.745Z,592
2017-03-06T07:28:41.232Z,616
2017-03-06T07:29:41.242Z,636
2017-03-06T07:30:41.249Z,660
2017-03-06T07:31:41.246Z,688
2017-03-06T07:32:41.260Z,676
2017-03-06T07:33:41.264Z,668
2017-03-06T07:34:41.349Z,700
2017-03-06T07:35:41.337Z,620
2017-03-06T07:36:40.899Z,604
2017-03-06T07:37:41.359Z,604
2017-03-06T07:38:41.371Z,616
2017-03-06T07:39:41.367Z,628
2017-03-06T07:40:41.386Z,576
2017-03-06T07:41:40.566Z,484
2017-03-06T07:42:41.388Z,456
2017-03-06T07:43:41.456Z,444
2017-03-06T07:44:41.480Z,524
2017-03-06T07:45:41.468Z,464
2017-03-06T07:46:41.541Z,436
2017-03-06T07:47:41.553Z,504
2017-03-06T07:48:41.546Z,444
2017-03-06T07:49:41.562Z,440
2017-03-06T07:50:41.585Z,440
2017-03-06T07:51:41.594Z,504
2017-03-06T07:52:41.762Z,400
2017-03-06T07:53:41.772Z,396
2017-03-06T07:54:41.167Z,368
2017-03-06T07:55:41.688Z,368
2017-03-06T07:56:41.696Z,388
2017-03-06T07:57:41.724Z,472
2017-03-06T07:58:41.712Z,492
2017-03-06T07:59:41.720Z,420
2017-03-06T08:00:41.739Z,472
2017-03-06T08:01:41.873Z,512
2017-03-06T08:02:41.370Z,496
2017-03-06T08:03:41.881Z,596
2017-03-06T08:04:41.893Z,480
2017-03-06T08:05:41.911Z,484
2017-03-06T08:06:41.930Z,508
2017-03-06T08:07:41.434Z,540
2017-03-06T08:08:41.833Z,492
2017-03-06T08:09:41.883Z,548
2017-03-06T08:10:41.890Z,568
2017-03-06T08:11:41.485Z,728
2017-03-06T08:12:41.920Z,596
2017-03-06T08:13:41.927Z,628
2017-03-06T08:14:42.134Z,588
2017-03-06T08:15:41.953Z,616
2017-03-06T08:16:41.991Z,700
2017-03-06T08:17:41.906Z,856
2017-03-06T08:18:41.525Z,640
2017-03-06T08:19:41.941Z,652
2017-03-06T08:20:41.996Z,720
2017-03-06T08:21:41.957Z,768
2017-03-06T08:22:41.693Z,856
2017-03-06T08:23:41.813Z,740
2017-03-06T08:24:42.018Z,652
2017-03-06T08:25:42.025Z,1028
2017-03-06T08:26:42.108Z,860
2017-03-06T08:27:42.120Z,912
2017-03-06T08:28:41.700Z,932
2017-03-06T08:29:42.184Z,1032
2017-03-06T08:30:42.182Z,1020
2017-03-06T08:31:41.707Z,1000
2017-03-06T08:32:42.241Z,1060
2017-03-06T08:33:41.764Z,1184
2017-03-06T08:34:41.779Z,1240
2017-03-06T08:35:42.277Z,1096
2017-03-06T08:36:41.780Z,1336
2017-03-06T08:37:42.297Z,1288
2017-03-06T08:38:41.823Z,1320
2017-03-06T08:39:41.851Z,1260
2017-03-06T08:40:41.861Z,1384
2017-03-06T08:41:42.326Z,1376
2017-03-06T08:42:42.331Z,1368
2017-03-06T08:43:42.337Z,1368
2017-03-06T08:44:42.406Z,1380
2017-03-06T08:45:41.927Z,1372
2017-03-06T08:46:42.486Z,1448
2017-03-06T08:47:42.078Z,1484
2017-03-06T08:48:42.469Z,1508
2017-03-06T08:49:42.109Z,1512
2017-03-06T08:50:42.487Z,1520
2017-03-06T08:51:42.495Z,1504
2017-03-06T08:52:42.669Z,1536
2017-03-06T08:53:42.671Z,1508
2017-03-06T08:54:42.675Z,1440
2017-03-06T08:55:42.692Z,1444
2017-03-06T08:56:42.706Z,1504
2017-03-06T08:57:42.607Z,1604
2017-03-06T08:58:42.345Z,1524
2017-03-06T08:59:42.624Z,1140
2017-03-06T09:00:42.726Z,1252
2017-03-06T09:01:42.261Z,1492
2017-03-06T09:02:42.790Z,1360
2017-03-06T09:03:42.712Z,1468
2017-03-06T09:04:42.792Z,1456
2017-03-06T09:05:42.801Z,1236
2017-03-06T09:06:42.809Z,1500
2017-03-06T09:07:42.748Z,1332
2017-03-06T09:08:42.434Z,1228
2017-03-06T09:09:42.827Z,1620
2017-03-06T09:10:42.800Z,1616
2017-03-06T09:11:42.390Z,1320
2017-03-06T09:12:42.413Z,1164
2017-03-06T09:13:42.818Z,1336
2017-03-06T09:14:42.837Z,1348
2017-03-06T09:15:42.845Z,1688
2017-03-06T09:16:42.852Z,1900
2017-03-06T09:17:42.853Z,1848
2017-03-06T09:18:42.848Z,1764
2017-03-06T09:19:42.865Z,1568
2017-03-06T09:20:42.862Z,1788
2017-03-06T09:21:42.892Z,1672
2017-03-06T09:22:42.241Z,1864
2017-03-06T09:23:42.971Z,1724
2017-03-06T09:24:42.927Z,1888
2017-03-06T09:25:42.938Z,1848
2017-03-06T09:26:42.948Z,1844
2017-03-06T09:27:42.682Z,1736
2017-03-06T09:28:43.072Z,1676
2017-03-06T09:29:43.010Z,1356
2017-03-06T09:30:43.027Z,1672
2017-03-06T09:31:43.113Z,1736
2017-03-06T09:32:43.247Z,1636
2017-03-06T09:33:43.245Z,1344
2017-03-06T09:34:43.274Z,1376
2017-03-06T09:35:42.791Z,1472
2017-03-06T09:36:43.213Z,1684
2017-03-06T09:37:43.244Z,1700
2017-03-06T09:38:43.285Z,1936
2017-03-06T09:39:43.277Z,1696
2017-03-06T09:40:43.273Z,1880
2017-03-06T09:41:43.258Z,1916
2017-03-06T09:42:43.264Z,1956
2017-03-06T09:43:43.273Z,1960
2017-03-06T09:44:43.363Z,1988
2017-03-06T09:45:43.258Z,1984
2017-03-06T09:46:43.297Z,1960
2017-03-06T09:47:43.274Z,1892
2017-03-06T09:48:43.338Z,1836
2017-03-06T09:49:43.338Z,1800
2017-03-06T09:50:43.342Z,1744
2017-03-06T09:51:43.376Z,1616
2017-03-06T09:52:43.397Z,1364
2017-03-06T09:53:43.397Z,1452
2017-03-06T09:54:43.412Z,1220
2017-03-06T09:55:43.402Z,1456
2017-03-06T09:56:43.143Z,1476
2017-03-06T09:57:43.621Z,1512
2017-03-06T09:58:43.490Z,1500
2017-03-06T09:59:43.077Z,1372
2017-03-06T10:00:43.132Z,1368
2017-03-06T10:01:43.509Z,1544
2017-03-06T10:02:43.546Z,1708
2017-03-06T10:03:43.530Z,1500
2017-03-06T10:04:43.579Z,1412
2017-03-06T10:05:43.580Z,1316
2017-03-06T10:06:43.606Z,1344
2017-03-06T10:07:43.601Z,1464
2017-03-06T10:08:43.644Z,1556
2017-03-06T10:09:43.643Z,1656
2017-03-06T10:10:43.676Z,1720
2017-03-06T10:11:43.659Z,1716
2017-03-06T10:12:43.301Z,1684
2017-03-06T10:13:43.715Z,1652
2017-03-06T10:14:43.337Z,1612
2017-03-06T10:15:43.335Z,1608
2017-03-06T10:16:43.366Z,1552
2017-03-06T10:17:43.373Z,1544
2017-03-06T10:18:43.381Z,1572
2017-03-06T10:19:43.396Z,1624
2017-03-06T10:20:43.452Z,1824
2017-03-06T10:21:43.438Z,1832
2017-03-06T10:22:43.468Z,1828
2017-03-06T10:23:43.856Z,1836
2017-03-06T10:24:43.891Z,1860
2017-03-06T10:25:43.882Z,1848
2017-03-06T10:26:43.947Z,1876
2017-03-06T10:27:43.928Z,1876
2017-03-06T10:28:43.969Z,1844
2017-03-06T10:29:43.992Z,1844
2017-03-06T10:30:43.608Z,1800
2017-03-06T10:31:44.005Z,1848
2017-03-06T10:32:44.037Z,1880
2017-03-06T10:33:44.017Z,1904
2017-03-06T10:34:44.116Z,1952
2017-03-06T10:35:43.675Z,2000
2017-03-06T10:36:44.116Z,2112
2017-03-06T10:37:44.094Z,2232
2017-03-06T10:38:44.146Z,2288
2017-03-06T10:39:44.132Z,2404
2017-03-06T10:40:44.151Z,2504
2017-03-06T10:41:43.777Z,2452
2017-03-06T10:42:43.804Z,2320
2017-03-06T10:43:44.202Z,2192
2017-03-06T10:44:44.209Z,2092
2017-03-06T10:45:44.246Z,2056
2017-03-06T10:46:44.248Z,1988
2017-03-06T10:47:44.266Z,2036
2017-03-06T10:48:44.307Z,2080
2017-03-06T10:49:44.284Z,1956
2017-03-06T10:50:44.325Z,1852
2017-03-06T10:51:44.345Z,1936
2017-03-06T10:52:44.337Z,1868
2017-03-06T10:53:44.346Z,1792
2017-03-06T10:54:44.399Z,1680
2017-03-06T10:55:44.387Z,2200
2017-03-06T10:56:44.427Z,2264
2017-03-06T10:57:44.434Z,2396
2017-03-06T10:58:44.444Z,2632
2017-03-06T10:59:44.460Z,2768
2017-03-06T11:00:44.490Z,2948
2017-03-06T11:01:44.477Z,2908
2017-03-06T11:02:44.543Z,2920
2017-03-06T11:03:44.551Z,2864
2017-03-06T11:04:44.568Z,2768
2017-03-06T11:05:44.156Z,2644
2017-03-06T11:06:44.604Z,2452
2017-03-06T11:07:44.590Z,2276
2017-03-06T11:08:44.624Z,2196
2017-03-06T11:09:44.619Z,2200
2017-03-06T11:10:44.656Z,2252
2017-03-06T11:11:44.353Z,2316
2017-03-06T11:12:44.407Z,2372
2017-03-06T11:13:44.770Z,2392
2017-03-06T11:14:44.412Z,2396
2017-03-06T11:15:44.797Z,2388
2017-03-06T11:16:44.359Z,2328
2017-03-06T11:17:44.458Z,2296
2017-03-06T11:18:44.853Z,2288
2017-03-06T11:19:44.579Z,2244
2017-03-06T11:20:44.804Z,2024
2017-03-06T11:21:44.830Z,1852
2017-03-06T11:22:44.832Z,2108
2017-03-06T11:23:44.863Z,2140
2017-03-06T11:24:44.889Z,2156
2017-03-06T11:25:44.905Z,2268
2017-03-06T11:26:44.906Z,2396
2017-03-06T11:27:44.925Z,2340
2017-03-06T11:28:44.937Z,2464
2017-03-06T11:29:44.947Z,2440
2017-03-06T11:30:44.986Z,2332
2017-03-06T11:31:44.985Z,2284
2017-03-06T11:32:45.003Z,2152
2017-03-06T11:33:45.031Z,2116
2017-03-06T11:34:45.047Z,2268
2017-03-06T11:35:45.069Z,2256
2017-03-06T11:36:45.076Z,2284
2017-03-06T11:37:45.099Z,2300
2017-03-06T11:38:45.214Z,2276
2017-03-06T11:39:45.137Z,2240
2017-03-06T11:40:44.760Z,2236
2017-03-06T11:41:45.159Z,2252
2017-03-06T11:42:45.180Z,2228
2017-03-06T11:43:45.235Z,2240
2017-03-06T11:44:45.522Z,2276
2017-03-06T11:45:45.252Z,2204
2017-03-06T11:46:45.262Z,1956
2017-03-06T11:47:45.265Z,2020
2017-03-06T11:48:45.403Z,1664
2017-03-06T11:49:45.553Z,1164
2017-03-06T11:50:45.421Z,1272
2017-03-06T11:51:45.435Z,1720
2017-03-06T11:52:44.966Z,1888
2017-03-06T11:53:44.977Z,1948
2017-03-06T11:54:45.011Z,1908
2017-03-06T11:55:45.402Z,1796
2017-03-06T11:56:45.495Z,1688
2017-03-06T11:57:45.529Z,1548
2017-03-06T11:58:45.213Z,1308
2017-03-06T11:59:45.547Z,1124
2017-03-06T12:00:45.553Z,1216
2017-03-06T12:01:45.562Z,1392
2017-03-06T12:02:45.542Z,1312
2017-03-06T12:03:45.552Z,1256
2017-03-06T12:04:45.561Z,1468
2017-03-06T12:05:45.573Z,1544
2017-03-06T12:06:45.595Z,1340
2017-03-06T12:07:45.632Z,1200
2017-03-06T12:08:45.645Z,1200
2017-03-06T12:09:45.655Z,1232
2017-03-06T12:10:45.668Z,1216
2017-03-06T12:11:45.702Z,1176
2017-03-06T12:12:45.708Z,1132
2017-03-06T12:13:45.718Z,1048
2017-03-06T12:14:45.746Z,1100
2017-03-06T12:15:45.387Z,1052
2017-03-06T12:16:45.775Z,988
2017-03-06T12:17:45.788Z,1008
2017-03-06T12:18:45.806Z,968
2017-03-06T12:19:45.825Z,872
2017-03-06T12:20:45.863Z,844
2017-03-06T12:21:45.906Z,1144
2017-03-06T12:22:45.578Z,1620
2017-03-06T12:23:45.576Z,1828
2017-03-06T12:24:45.921Z,1860
2017-03-06T12:25:45.932Z,1724
2017-03-06T12:26:45.554Z,1676
2017-03-06T12:27:45.816Z,1844
2017-03-06T12:28:46.180Z,2140
2017-03-06T12:29:46.007Z,2196
2017-03-06T12:30:46.154Z,2248
2017-03-06T12:31:46.164Z,2248
2017-03-06T12:32:45.663Z,2180
2017-03-06T12:33:46.181Z,2168
2017-03-06T12:34:45.690Z,2172
2017-03-06T12:35:46.222Z,2184
2017-03-06T12:36:45.331Z,2224
2017-03-06T12:37:46.240Z,2256
2017-03-06T12:38:45.759Z,2240
2017-03-06T12:39:46.247Z,2200
2017-03-06T12:40:46.256Z,2120
2017-03-06T12:41:46.325Z,2140
2017-03-06T12:42:46.324Z,2144
2017-03-06T12:43:46.333Z,2084
2017-03-06T12:44:46.342Z,2020
2017-03-06T12:45:46.350Z,1920
2017-03-06T12:46:46.411Z,1756
2017-03-06T12:47:46.446Z,1668
2017-03-06T12:48:46.422Z,1608
2017-03-06T12:49:46.455Z,1548
2017-03-06T12:50:45.689Z,1584
2017-03-06T12:51:46.498Z,1588
2017-03-06T12:52:46.488Z,1512
2017-03-06T12:53:46.144Z,1448
2017-03-06T12:54:46.449Z,1348
2017-03-06T12:55:46.459Z,1240
2017-03-06T12:56:46.504Z,1132
2017-03-06T12:57:46.503Z,1096
2017-03-06T12:58:46.590Z,1020
2017-03-06T12:59:46.534Z,1040
2017-03-06T13:00:46.560Z,1120
2017-03-06T13:01:46.565Z,1124
2017-03-06T13:02:46.596Z,1056
2017-03-06T13:03:46.228Z,1032
2017-03-06T13:04:46.222Z,1032
2017-03-06T13:05:46.266Z,1052
2017-03-06T13:06:46.682Z,1064
2017-03-06T13:07:46.275Z,1136
2017-03-06T13:08:46.312Z,1236
2017-03-06T13:09:46.730Z,1232
2017-03-06T13:10:46.359Z,1188
2017-03-06T13:11:46.754Z,1300
2017-03-06T13:12:46.785Z,1420
2017-03-06T13:13:46.789Z,1472
2017-03-06T13:14:46.815Z,1496
2017-03-06T13:15:46.432Z,1480
2017-03-06T13:16:46.839Z,1424
2017-03-06T13:17:46.864Z,1320
2017-03-06T13:18:46.487Z,1232
2017-03-06T13:19:46.942Z,1176
2017-03-06T13:20:46.932Z,1104
2017-03-06T13:21:46.552Z,1132
2017-03-06T13:22:46.949Z,1196
2017-03-06T13:23:46.966Z,1204
2017-03-06T13:24:46.614Z,1176
2017-03-06T13:25:46.612Z,1144
2017-03-06T13:26:47.026Z,1168
2017-03-06T13:27:47.050Z,1240
2017-03-06T13:28:46.657Z,1368
2017-03-06T13:29:47.084Z,1408
2017-03-06T13:30:47.101Z,1320
2017-03-06T13:31:47.111Z,1312
2017-03-06T13:32:46.744Z,1324
2017-03-06T13:33:46.770Z,1400
2017-03-06T13:34:47.170Z,1408
2017-03-06T13:35:47.193Z,1268
2017-03-06T13:36:46.830Z,1080
2017-03-06T13:37:47.228Z,944
2017-03-06T13:38:47.247Z,840
2017-03-06T13:39:46.861Z,768
2017-03-06T13:40:47.270Z,716
2017-03-06T13:41:47.322Z,720
2017-03-06T13:42:47.381Z,668
2017-03-06T13:43:46.941Z,584
2017-03-06T13:44:47.339Z,480
2017-03-06T13:45:47.373Z,392
2017-03-06T13:46:46.624Z,336
2017-03-06T13:47:47.409Z,312
2017-03-06T13:48:47.412Z,320
2017-03-06T13:49:47.426Z,356
2017-03-06T13:50:47.449Z,412
2017-03-06T13:51:47.501Z,456
2017-03-06T13:52:47.502Z,520
2017-03-06T13:53:47.513Z,568
2017-03-06T13:54:47.536Z,624
2017-03-06T13:55:47.140Z,656
2017-03-06T13:56:47.562Z,652
2017-03-06T13:57:47.175Z,648
2017-03-06T13:58:47.604Z,668
2017-03-06T13:59:47.220Z,708
2017-03-06T14:00:47.239Z,776